createdAt,value
2022-12-22T00:02:40.933Z,31.70
2022-12-22T00:05:41.641Z,31.00
2022-12-22T00:08:28.334Z,30.40
2022-12-22T00:11:16.119Z,30.00
2022-12-22T00:14:04.008Z,30.30
2022-12-22T00:16:54.754Z,30.70
2022-12-22T00:19:40.723Z,30.10
2022-12-22T00:22:43.412Z,29.40
2022-12-22T00:25:33.832Z,30.10
2022-12-22T00:28:20.305Z,31.20
2022-12-22T00:31:06.842Z,31.00
2022-12-22T00:33:52.562Z,31.10
2022-12-22T00:36:42.350Z,30.20
2022-12-22T00:39:33.725Z,30.30
2022-12-22T00:42:19.293Z,30.60
2022-12-22T00:45:04.864Z,29.60
2022-12-22T00:47:50.707Z,28.90
2022-12-22T00:50:36.848Z,28.20
2022-12-22T00:53:23.688Z,28.60
2022-12-22T00:56:09.081Z,28.30
2022-12-22T00:58:55.322Z,28.00
2022-12-22T01:01:41.025Z,28.30
2022-12-22T01:04:29.738Z,27.80
2022-12-22T01:07:15.660Z,28.00
2022-12-22T01:10:07.985Z,28.60
2022-12-22T01:12:57.105Z,28.90
2022-12-22T01:15:43.715Z,28.80
2022-12-22T01:18:30.240Z,29.30
2022-12-22T01:21:15.983Z,30.30
2022-12-22T01:24:02.028Z,30.50
2022-12-22T01:26:47.939Z,30.40
2022-12-22T01:29:33.386Z,30.60
2022-12-22T01:32:19.346Z,30.20
2022-12-22T01:35:04.845Z,29.80
2022-12-22T01:37:50.502Z,29.90
2022-12-22T01:40:41.808Z,30.30
2022-12-22T01:43:36.578Z,30.50
2022-12-22T01:46:44.517Z,29.60
2022-12-22T01:49:37.841Z,28.90
2022-12-22T01:52:24.895Z,29.90
2022-12-22T01:55:11.318Z,30.00
2022-12-22T01:57:56.793Z,28.80
2022-12-22T02:00:42.582Z,28.00
2022-12-22T02:03:36.957Z,28.00
2022-12-22T02:06:44.190Z,28.20
2022-12-22T02:10:02.943Z,27.40
2022-12-22T02:13:12.501Z,27.20
2022-12-22T02:16:23.171Z,27.40
2022-12-22T02:19:46.962Z,27.00
2022-12-22T02:22:51.907Z,26.80
2022-12-22T02:25:47.090Z,26.80
2022-12-22T02:28:33.726Z,26.10
2022-12-22T02:31:19.512Z,25.50
2022-12-22T02:34:05.347Z,26.10
2022-12-22T02:37:21.195Z,26.50
2022-12-22T02:40:34.399Z,27.10
2022-12-22T02:43:58.629Z,28.50
2022-12-22T02:47:01.763Z,29.30
2022-12-22T02:50:05.133Z,29.50
2022-12-22T02:52:54.879Z,29.30
2022-12-22T02:55:40.751Z,29.60
2022-12-22T02:58:26.300Z,29.50
2022-12-22T03:01:11.927Z,29.00
2022-12-22T03:03:57.674Z,28.20
2022-12-22T03:06:43.212Z,28.00
2022-12-22T03:09:28.930Z,28.20
2022-12-22T03:12:14.395Z,28.10
2022-12-22T03:14:59.835Z,28.30
2022-12-22T03:17:45.519Z,29.30
2022-12-22T03:20:31.024Z,29.40
2022-12-22T03:23:25.663Z,29.10
2022-12-22T03:25:55.410Z,28.90
2022-12-22T03:28:25.184Z,29.40
2022-12-22T03:31:04.911Z,30.20
2022-12-22T03:33:32.988Z,29.30
2022-12-22T03:36:01.118Z,29.70
2022-12-22T03:38:28.543Z,29.30
2022-12-22T03:40:55.842Z,29.80
2022-12-22T03:43:41.483Z,29.70
2022-12-22T03:46:31.578Z,29.80
2022-12-22T03:49:13.125Z,30.10
2022-12-22T03:51:48.179Z,30.40
2022-12-22T03:54:21.462Z,30.10
2022-12-22T03:56:49.252Z,30.50
2022-12-22T03:59:17.535Z,30.40
2022-12-22T04:01:47.712Z,30.70
2022-12-22T04:04:16.353Z,30.30
2022-12-22T04:06:43.827Z,29.20
2022-12-22T04:09:11.101Z,28.90
2022-12-22T04:11:56.800Z,28.70
2022-12-22T04:14:29.669Z,28.90
2022-12-22T04:17:00.617Z,29.10
2022-12-22T04:19:27.786Z,29.30
2022-12-22T04:21:55.364Z,29.50
2022-12-22T04:24:22.568Z,29.50
2022-12-22T04:26:50.793Z,29.90
2022-12-22T04:29:17.898Z,30.10
2022-12-22T04:31:45.099Z,29.90
2022-12-22T04:34:12.459Z,29.70
2022-12-22T04:36:39.475Z,30.00
2022-12-22T04:39:06.733Z,29.80
2022-12-22T04:41:33.768Z,29.30
2022-12-22T04:44:00.819Z,28.90
2022-12-22T04:46:28.087Z,29.60
2022-12-22T04:48:59.998Z,29.30
2022-12-22T04:51:28.698Z,28.80
2022-12-22T04:53:56.207Z,28.90
2022-12-22T04:56:23.480Z,28.70
2022-12-22T04:58:50.674Z,28.50
2022-12-22T05:01:19.364Z,29.10
2022-12-22T05:03:47.189Z,28.30
2022-12-22T05:06:14.857Z,27.80
2022-12-22T05:08:42.671Z,27.40
2022-12-22T05:11:10.170Z,28.30
2022-12-22T05:13:37.731Z,28.90
2022-12-22T05:16:11.007Z,28.60
2022-12-22T05:18:39.344Z,27.90
2022-12-22T05:21:18.207Z,29.20
2022-12-22T05:23:45.913Z,29.60
2022-12-22T05:26:14.800Z,29.20
2022-12-22T05:28:42.897Z,29.80
2022-12-22T05:31:14.908Z,28.40
2022-12-22T05:33:42.014Z,28.00
2022-12-22T05:36:09.218Z,28.60
2022-12-22T05:38:36.404Z,28.70
2022-12-22T05:41:04.775Z,29.00
2022-12-22T05:43:36.424Z,29.70
2022-12-22T05:46:09.783Z,29.50
2022-12-22T05:48:39.147Z,29.60
2022-12-22T05:51:08.456Z,29.50
2022-12-22T05:53:35.814Z,30.10
2022-12-22T05:56:02.941Z,30.90
2022-12-22T05:58:30.286Z,30.50
2022-12-22T06:00:59.436Z,30.90
2022-12-22T06:03:27.778Z,30.20
2022-12-22T06:05:55.035Z,30.20
2022-12-22T06:08:22.793Z,30.70
2022-12-22T06:10:51.520Z,30.40
2022-12-22T06:13:18.541Z,30.10
2022-12-22T06:15:46.152Z,30.50
2022-12-22T06:18:13.567Z,30.20
2022-12-22T06:20:40.748Z,29.90
2022-12-22T06:23:08.096Z,30.00
2022-12-22T06:25:35.192Z,30.40
2022-12-22T06:28:03.831Z,30.50
2022-12-22T06:30:33.648Z,30.80
2022-12-22T06:33:01.652Z,30.50
2022-12-22T06:35:29.045Z,30.60
2022-12-22T06:37:56.467Z,30.70
2022-12-22T06:40:23.534Z,31.20
2022-12-22T06:43:09.556Z,31.20
2022-12-22T06:45:43.025Z,31.00
2022-12-22T06:48:11.875Z,31.30
2022-12-22T06:50:39.459Z,31.00
2022-12-22T06:53:08.790Z,31.10
2022-12-22T06:55:36.819Z,31.20
2022-12-22T06:58:04.836Z,31.00
2022-12-22T07:00:32.257Z,31.20
2022-12-22T07:03:01.024Z,30.50
2022-12-22T07:05:30.352Z,30.00
2022-12-22T07:08:02.705Z,30.10
2022-12-22T07:10:53.689Z,30.50
2022-12-22T07:13:20.880Z,30.70
2022-12-22T07:15:53.813Z,30.70
2022-12-22T07:18:24.937Z,30.60
2022-12-22T07:20:52.211Z,30.80
2022-12-22T07:23:19.240Z,30.80
2022-12-22T07:25:49.567Z,31.00
2022-12-22T07:28:20.620Z,29.80
2022-12-22T07:30:52.061Z,30.40
2022-12-22T07:33:19.616Z,30.50
2022-12-22T07:35:46.811Z,30.30
2022-12-22T07:38:14.127Z,30.40
2022-12-22T07:40:42.392Z,30.70
2022-12-22T07:43:10.184Z,30.70
2022-12-22T07:45:37.316Z,30.20
2022-12-22T07:48:24.750Z,30.60
2022-12-22T07:50:51.877Z,30.20
2022-12-22T07:53:18.970Z,30.30
2022-12-22T07:55:46.238Z,30.10
2022-12-22T07:58:13.496Z,30.00
2022-12-22T08:00:40.899Z,29.60
2022-12-22T08:03:09.970Z,30.00
2022-12-22T08:05:38.460Z,30.20
2022-12-22T08:08:05.838Z,30.40
2022-12-22T08:10:33.413Z,30.70
2022-12-22T08:13:00.527Z,30.70
2022-12-22T08:15:27.593Z,30.30
2022-12-22T08:17:54.621Z,31.10
2022-12-22T08:20:21.738Z,30.30
2022-12-22T08:22:48.792Z,30.60
2022-12-22T08:25:15.944Z,30.40
2022-12-22T08:27:48.168Z,30.60
2022-12-22T08:30:15.633Z,30.80
2022-12-22T08:32:46.382Z,30.90
2022-12-22T08:35:13.472Z,30.50
2022-12-22T08:37:44.500Z,30.90
2022-12-22T08:40:24.606Z,31.30
2022-12-22T08:42:56.979Z,30.60
2022-12-22T08:45:25.447Z,30.70
2022-12-22T08:47:52.535Z,30.00
2022-12-22T08:50:19.948Z,29.50
2022-12-22T08:52:46.931Z,29.40
2022-12-22T08:55:14.457Z,28.80
2022-12-22T08:57:42.030Z,29.70
2022-12-22T09:00:13.310Z,29.60
2022-12-22T09:02:40.776Z,29.90
2022-12-22T09:05:08.345Z,29.50
2022-12-22T09:07:35.653Z,29.60
2022-12-22T09:10:02.703Z,29.80
2022-12-22T09:12:30.543Z,30.40
2022-12-22T09:14:57.627Z,29.70
2022-12-22T09:17:24.659Z,29.40
2022-12-22T09:19:52.174Z,29.80
2022-12-22T09:22:25.034Z,29.20
2022-12-22T09:24:55.082Z,29.40
2022-12-22T09:27:22.116Z,29.50
2022-12-22T09:29:49.123Z,29.40
2022-12-22T09:32:18.859Z,29.20
2022-12-22T09:34:45.956Z,29.60
2022-12-22T09:37:15.975Z,29.50
2022-12-22T09:39:43.351Z,29.90
2022-12-22T09:42:20.279Z,29.90
2022-12-22T09:45:00.018Z,30.90
2022-12-22T09:47:36.107Z,31.00
2022-12-22T09:50:05.195Z,31.70
2022-12-22T09:52:35.389Z,31.20
2022-12-22T09:55:04.748Z,30.90
2022-12-22T09:57:32.971Z,29.90
2022-12-22T10:00:14.176Z,30.70
2022-12-22T10:02:52.687Z,30.80
2022-12-22T10:05:46.279Z,30.60
2022-12-22T10:08:16.594Z,30.60
2022-12-22T10:10:43.746Z,30.40
2022-12-22T10:13:18.828Z,30.70
2022-12-22T10:15:46.098Z,31.10
2022-12-22T10:18:32.191Z,31.30
2022-12-22T10:21:14.581Z,29.80
2022-12-22T10:23:46.788Z,29.40
2022-12-22T10:26:30.401Z,29.90
2022-12-22T10:29:10.621Z,30.30
2022-12-22T10:32:00.015Z,29.90
2022-12-22T10:34:27.358Z,29.70
2022-12-22T10:37:00.196Z,30.00
2022-12-22T10:39:35.653Z,30.10
2022-12-22T10:42:13.751Z,30.60
2022-12-22T10:44:47.919Z,30.30
2022-12-22T10:47:20.475Z,30.70
2022-12-22T10:49:50.380Z,30.90
2022-12-22T10:52:33.177Z,30.60
2022-12-22T10:55:20.711Z,30.00
2022-12-22T10:57:48.337Z,29.40
2022-12-22T11:00:33.467Z,29.60
2022-12-22T11:03:02.232Z,30.00
2022-12-22T11:05:31.487Z,30.00
2022-12-22T11:08:05.592Z,29.50
2022-12-22T11:10:41.706Z,29.30
2022-12-22T11:13:29.529Z,29.80
2022-12-22T11:16:03.094Z,30.00
2022-12-22T11:18:39.793Z,29.60
2022-12-22T11:21:25.213Z,29.90
2022-12-22T11:24:21.753Z,30.20
2022-12-22T11:27:07.155Z,29.80
2022-12-22T11:30:03.665Z,30.00
2022-12-22T11:32:45.633Z,29.00
2022-12-22T11:35:46.076Z,28.50
2022-12-22T11:38:34.098Z,29.00
2022-12-22T11:41:17.815Z,28.80
2022-12-22T11:43:44.816Z,29.00
2022-12-22T11:46:21.396Z,28.50
2022-12-22T11:49:06.288Z,28.50
2022-12-22T11:51:40.133Z,27.90
2022-12-22T11:54:25.075Z,28.20
2022-12-22T11:57:30.285Z,28.10
2022-12-22T11:59:57.714Z,28.60
2022-12-22T12:02:48.126Z,28.40
2022-12-22T12:05:32.319Z,29.00
2022-12-22T12:08:29.626Z,28.30
2022-12-22T12:11:02.757Z,28.50
2022-12-22T12:13:54.112Z,28.90
2022-12-22T12:16:23.827Z,29.10
2022-12-22T12:19:32.901Z,28.80
2022-12-22T12:22:04.970Z,28.80
2022-12-22T12:25:03.388Z,27.90
2022-12-22T12:28:01.899Z,28.00
2022-12-22T12:30:39.903Z,28.70
2022-12-22T12:33:17.228Z,29.10
2022-12-22T12:35:44.305Z,29.10
2022-12-22T12:41:40.476Z,29.60
2022-12-22T12:44:13.460Z,30.10
2022-12-22T12:46:40.688Z,29.90
2022-12-22T12:49:36.518Z,29.60
2022-12-22T12:52:07.733Z,29.00
2022-12-22T12:54:51.952Z,28.50
2022-12-22T12:57:25.311Z,29.40
2022-12-22T12:59:54.967Z,29.80
2022-12-22T13:02:28.493Z,29.80
2022-12-22T13:05:15.872Z,29.30
2022-12-22T13:08:04.439Z,29.30
2022-12-22T13:10:33.437Z,30.20
2022-12-22T13:13:00.947Z,31.00
2022-12-22T13:15:33.107Z,31.60
2022-12-22T13:18:01.838Z,31.70
2022-12-22T13:20:35.248Z,31.40
2022-12-22T13:23:10.515Z,31.10
2022-12-22T13:25:55.984Z,31.20
2022-12-22T13:28:24.401Z,30.10
2022-12-22T13:31:00.972Z,31.00
2022-12-22T13:33:32.324Z,31.30
2022-12-22T13:36:00.054Z,31.70
2022-12-22T13:38:34.904Z,30.90
2022-12-22T13:41:21.409Z,29.40
2022-12-22T13:44:06.286Z,28.30
2022-12-22T13:46:36.133Z,29.40
2022-12-22T13:49:05.017Z,29.50
2022-12-22T13:51:36.855Z,29.50
2022-12-22T13:54:13.943Z,29.00
2022-12-22T13:56:47.892Z,28.70
2022-12-22T13:59:36.329Z,29.30
2022-12-22T14:02:09.532Z,28.40
2022-12-22T14:04:41.512Z,28.40
2022-12-22T14:07:15.838Z,28.30
2022-12-22T14:09:48.479Z,28.90
2022-12-22T14:12:23.102Z,28.80
2022-12-22T14:14:53.448Z,29.60
2022-12-22T14:17:31.003Z,30.00
2022-12-22T14:20:00.657Z,29.90
2022-12-22T14:22:38.628Z,29.50
2022-12-22T14:25:36.496Z,29.20
2022-12-22T14:28:06.523Z,29.20
2022-12-22T14:30:41.730Z,29.50
2022-12-22T14:33:28.461Z,29.90
2022-12-22T14:36:27.637Z,30.70
2022-12-22T14:39:05.424Z,30.30
2022-12-22T14:41:51.837Z,30.50
2022-12-22T14:44:35.349Z,30.70
2022-12-22T14:47:08.371Z,30.40
2022-12-22T14:49:42.639Z,30.80
2022-12-22T14:52:36.472Z,30.70
2022-12-22T14:55:21.011Z,30.80
2022-12-22T14:57:54.416Z,30.20
2022-12-22T15:00:24.428Z,30.20
2022-12-22T15:02:54.967Z,30.10
2022-12-22T15:05:39.185Z,30.50
2022-12-22T15:08:27.157Z,30.90
2022-12-22T15:10:54.309Z,30.80
2022-12-22T15:13:24.157Z,29.80
2022-12-22T15:15:52.454Z,29.10
2022-12-22T15:18:26.353Z,29.20
2022-12-22T15:20:55.243Z,29.80
2022-12-22T15:23:22.461Z,30.50
2022-12-22T15:25:49.908Z,30.60
2022-12-22T15:28:16.916Z,30.50
2022-12-22T15:30:44.313Z,30.20
2022-12-22T15:33:15.198Z,30.30
2022-12-22T15:35:43.103Z,30.30
2022-12-22T15:38:15.575Z,29.50
2022-12-22T15:40:43.376Z,29.70
2022-12-22T15:43:28.696Z,29.00
2022-12-22T15:45:58.979Z,28.60
2022-12-22T15:48:37.608Z,28.50
2022-12-22T15:51:07.697Z,28.80
2022-12-22T15:53:35.340Z,28.10
2022-12-22T15:56:02.533Z,28.40
2022-12-22T15:58:35.583Z,28.80
2022-12-22T16:01:02.780Z,28.10
2022-12-22T16:03:29.997Z,27.70
2022-12-22T16:05:58.173Z,28.20
2022-12-22T16:08:31.490Z,28.60
2022-12-22T16:10:59.236Z,28.80
2022-12-22T16:13:28.593Z,29.50
2022-12-22T16:15:57.299Z,30.00
2022-12-22T16:18:24.593Z,30.50
2022-12-22T16:20:54.121Z,31.10
2022-12-22T16:23:24.423Z,31.00
2022-12-22T16:26:00.545Z,30.90
2022-12-22T16:28:29.041Z,31.20
2022-12-22T16:30:56.667Z,31.40
2022-12-22T16:33:23.754Z,30.80
2022-12-22T16:35:50.781Z,30.80
2022-12-22T16:38:19.298Z,31.60
2022-12-22T16:40:53.719Z,31.90
2022-12-22T16:46:18.249Z,31.20
2022-12-22T16:48:54.445Z,31.10
2022-12-22T16:51:37.374Z,31.30
2022-12-22T16:54:04.899Z,30.50
2022-12-22T16:56:32.488Z,31.30
2022-12-22T16:59:00.953Z,32.40
2022-12-22T17:01:31.296Z,32.50
2022-12-22T17:04:03.434Z,32.30
2022-12-22T17:06:30.873Z,31.50
2022-12-22T17:08:58.025Z,31.30
2022-12-22T17:11:27.601Z,31.60
2022-12-22T17:14:00.411Z,32.00
2022-12-22T17:16:27.498Z,31.90
2022-12-22T17:18:54.656Z,31.90
2022-12-22T17:21:23.040Z,32.00
2022-12-22T17:24:04.223Z,32.00
2022-12-22T17:26:33.934Z,31.50
2022-12-22T17:29:01.387Z,31.70
2022-12-22T17:31:29.067Z,32.00
2022-12-22T17:33:58.028Z,31.90
2022-12-22T17:36:36.912Z,32.40
2022-12-22T17:39:05.374Z,32.30
2022-12-22T17:41:33.244Z,32.40
2022-12-22T17:44:00.298Z,32.60
2022-12-22T17:46:28.385Z,32.50
2022-12-22T17:48:55.551Z,32.60
2022-12-22T17:51:28.688Z,32.80
2022-12-22T17:53:58.888Z,32.90
2022-12-22T17:56:27.541Z,33.00
2022-12-22T17:58:54.685Z,32.70
2022-12-22T18:01:31.999Z,32.50
2022-12-22T18:03:59.616Z,32.20
2022-12-22T18:06:33.992Z,32.40
2022-12-22T18:09:01.595Z,32.30
2022-12-22T18:11:28.872Z,32.00
2022-12-22T18:13:57.590Z,31.50
2022-12-22T18:16:24.829Z,31.20
2022-12-22T18:18:52.357Z,30.80
2022-12-22T18:21:22.731Z,30.90
2022-12-22T18:23:51.419Z,31.60
2022-12-22T18:26:28.705Z,32.40
2022-12-22T18:28:56.480Z,33.10
2022-12-22T18:31:24.727Z,33.00
2022-12-22T18:33:52.499Z,33.30
2022-12-22T18:36:25.022Z,33.10
2022-12-22T18:38:53.789Z,32.70
2022-12-22T18:41:25.988Z,32.70
2022-12-22T18:43:53.705Z,32.50
2022-12-22T18:46:21.222Z,32.40
2022-12-22T18:48:48.873Z,32.00
2022-12-22T18:51:24.639Z,32.40
2022-12-22T18:53:53.779Z,32.10
2022-12-22T18:56:21.134Z,32.30
2022-12-22T18:58:48.470Z,32.80
2022-12-22T19:01:24.705Z,32.50
2022-12-22T19:03:55.894Z,32.60
2022-12-22T19:06:23.279Z,32.40
2022-12-22T19:08:50.875Z,32.20
2022-12-22T19:11:21.615Z,32.00
2022-12-22T19:13:51.686Z,31.70
2022-12-22T19:16:25.028Z,31.20
2022-12-22T19:18:52.281Z,31.40
2022-12-22T19:21:20.081Z,31.30
2022-12-22T19:23:47.234Z,31.90
2022-12-22T19:26:26.073Z,32.20
2022-12-22T19:28:57.321Z,32.60
2022-12-22T19:31:31.254Z,32.40
2022-12-22T19:34:00.583Z,31.30
2022-12-22T19:36:30.317Z,30.10
2022-12-22T19:39:03.942Z,29.80
2022-12-22T19:41:51.018Z,29.10
2022-12-22T19:44:23.314Z,29.00
2022-12-22T19:46:51.528Z,29.50
2022-12-22T19:49:22.321Z,29.40
2022-12-22T19:51:50.309Z,28.80
2022-12-22T19:54:19.515Z,28.80
2022-12-22T19:56:51.108Z,28.50
2022-12-22T19:59:40.117Z,27.90
2022-12-22T20:02:24.868Z,28.00
2022-12-22T20:04:54.854Z,28.30
2022-12-22T20:07:24.298Z,28.60
2022-12-22T20:09:51.902Z,28.90
2022-12-22T20:12:29.498Z,29.00
2022-12-22T20:14:56.771Z,28.90
2022-12-22T20:17:24.034Z,28.90
2022-12-22T20:19:51.375Z,28.30
2022-12-22T20:22:21.244Z,28.00
2022-12-22T20:24:49.938Z,28.80
2022-12-22T20:27:41.096Z,28.40
2022-12-22T20:30:23.249Z,27.90
2022-12-22T20:32:50.533Z,27.90
2022-12-22T20:35:18.683Z,27.10
2022-12-22T20:37:45.882Z,27.30
2022-12-22T20:40:30.466Z,27.20
2022-12-22T20:42:58.267Z,28.10
2022-12-22T20:45:29.665Z,28.30
2022-12-22T20:47:59.596Z,27.90
2022-12-22T20:50:30.761Z,28.00
2022-12-22T20:52:57.714Z,28.20
2022-12-22T20:55:27.452Z,28.60
2022-12-22T20:57:55.147Z,28.90
2022-12-22T21:00:28.037Z,29.50
2022-12-22T21:02:55.301Z,30.60
2022-12-22T21:05:22.898Z,31.10
2022-12-22T21:07:50.595Z,31.20
2022-12-22T21:10:24.350Z,31.20
2022-12-22T21:12:51.551Z,30.40
2022-12-22T21:15:21.457Z,30.00
2022-12-22T21:17:51.503Z,30.30
2022-12-22T21:20:26.101Z,29.50
2022-12-22T21:22:53.247Z,29.40
2022-12-22T21:25:20.478Z,29.10
2022-12-22T21:27:50.328Z,28.80
2022-12-22T21:30:26.125Z,28.90
2022-12-22T21:32:53.662Z,29.30
2022-12-22T21:35:27.238Z,29.20
2022-12-22T21:37:55.335Z,28.50
2022-12-22T21:40:27.595Z,27.80
2022-12-22T21:42:54.846Z,27.50
2022-12-22T21:45:26.294Z,27.60
2022-12-22T21:47:53.702Z,27.90
2022-12-22T21:50:26.980Z,27.80
2022-12-22T21:52:54.453Z,27.80
2022-12-22T21:55:32.266Z,28.00
2022-12-22T21:58:00.340Z,28.70
2022-12-22T22:00:28.939Z,28.40
2022-12-22T22:02:56.780Z,27.80
2022-12-22T22:05:37.595Z,26.80
2022-12-22T22:08:07.065Z,26.50
2022-12-22T22:10:44.046Z,26.80
2022-12-22T22:13:17.001Z,27.30
2022-12-22T22:15:44.381Z,27.20
2022-12-22T22:18:19.530Z,27.90
2022-12-22T22:20:48.214Z,28.50
2022-12-22T22:23:15.687Z,28.10
2022-12-22T22:25:43.355Z,28.40
2022-12-22T22:28:12.075Z,28.10
2022-12-22T22:30:42.177Z,27.90
2022-12-22T22:33:10.623Z,27.00
2022-12-22T22:35:40.572Z,27.10
2022-12-22T22:38:12.443Z,27.40
2022-12-22T22:40:42.241Z,27.50
2022-12-22T22:43:09.786Z,27.30
2022-12-22T22:45:41.345Z,26.90
2022-12-22T22:48:18.161Z,26.80
2022-12-22T22:50:46.005Z,26.80
2022-12-22T22:53:13.261Z,26.60
2022-12-22T22:55:40.297Z,26.30
2022-12-22T22:58:08.055Z,25.80
2022-12-22T23:00:35.141Z,26.10
2022-12-22T23:03:02.228Z,27.00
2022-12-22T23:05:30.632Z,28.00
2022-12-22T23:07:58.112Z,28.60
2022-12-22T23:10:25.335Z,29.00
2022-12-22T23:12:52.381Z,29.00
2022-12-22T23:15:19.429Z,28.30
2022-12-22T23:17:46.887Z,28.00
2022-12-22T23:20:13.981Z,28.10
2022-12-22T23:22:41.486Z,28.00
2022-12-22T23:25:09.488Z,28.50
2022-12-22T23:27:36.677Z,28.20
2022-12-22T23:30:03.962Z,27.50
2022-12-22T23:32:31.300Z,27.20
2022-12-22T23:34:58.552Z,27.60
2022-12-22T23:37:25.671Z,27.30
2022-12-22T23:39:52.943Z,26.70
2022-12-22T23:42:19.970Z,26.90
2022-12-22T23:44:48.147Z,27.70
2022-12-22T23:47:15.194Z,28.00
2022-12-22T23:49:42.241Z,28.80
2022-12-22T23:52:09.974Z,29.30
2022-12-22T23:54:39.068Z,29.80
2022-12-22T23:57:06.077Z,30.20
2022-12-22T23:59:33.182Z,29.90
